createdAt,value
2019-03-10T00:02:11.961Z,33.85
2019-03-10T00:04:45.660Z,33.73
2019-03-10T00:07:19.305Z,34.60
2019-03-10T00:09:53.165Z,33.75
2019-03-10T00:12:26.885Z,35.20
2019-03-10T00:15:00.542Z,36.20
2019-03-10T00:17:34.506Z,38.15
2019-03-10T00:20:11.724Z,34.10
2019-03-10T00:22:46.257Z,38.02
2019-03-10T00:25:21.763Z,35.90
2019-03-10T00:27:56.732Z,35.43
2019-03-10T00:30:30.255Z,35.55
2019-03-10T00:33:03.993Z,34.10
2019-03-10T00:35:37.614Z,32.75
2019-03-10T00:38:11.266Z,32.60
2019-03-10T00:41:04.482Z,32.23
2019-03-10T00:44:04.366Z,32.83
2019-03-10T00:46:59.236Z,32.63
2019-03-10T00:49:40.831Z,33.80
2019-03-10T00:52:40.539Z,34.40
2019-03-10T00:55:14.565Z,33.50
2019-03-10T00:57:48.218Z,35.17
2019-03-10T01:00:22.797Z,36.77
2019-03-10T01:02:56.327Z,37.53
2019-03-10T01:05:29.718Z,35.63
2019-03-10T01:08:03.211Z,33.85
2019-03-10T01:10:36.857Z,36.88
2019-03-10T01:13:10.572Z,37.50
2019-03-10T01:15:45.991Z,37.23
2019-03-10T01:18:21.437Z,32.25
2019-03-10T01:20:56.520Z,37.00
2019-03-10T01:23:30.207Z,36.15
2019-03-10T01:26:03.918Z,33.73
2019-03-10T01:28:37.547Z,36.50
2019-03-10T01:31:25.083Z,30.30
2019-03-10T01:34:18.763Z,36.20
2019-03-10T01:36:52.559Z,35.63
2019-03-10T01:39:26.444Z,36.50
2019-03-10T01:42:00.019Z,35.33
2019-03-10T01:44:34.709Z,31.85
2019-03-10T01:47:08.028Z,34.80
2019-03-10T01:49:42.613Z,37.03
2019-03-10T01:52:16.250Z,36.60
2019-03-10T01:54:49.874Z,39.33
2019-03-10T01:57:23.591Z,37.42
2019-03-10T01:59:57.126Z,37.15
2019-03-10T02:02:31.143Z,36.08
2019-03-10T02:05:05.809Z,36.38
2019-03-10T02:07:39.532Z,35.67
2019-03-10T02:10:14.473Z,36.93
2019-03-10T02:12:48.115Z,35.40
2019-03-10T02:15:21.836Z,40.48
2019-03-10T02:17:55.746Z,35.95
2019-03-10T02:20:29.306Z,39.60
2019-03-10T02:23:02.932Z,33.90
2019-03-10T02:25:36.904Z,33.30
2019-03-10T02:28:10.649Z,32.85
2019-03-10T02:30:44.391Z,34.78
2019-03-10T02:33:18.556Z,37.05
2019-03-10T02:35:52.230Z,37.20
2019-03-10T02:38:25.807Z,39.25
2019-03-10T02:40:59.556Z,35.48
2019-03-10T02:43:33.340Z,36.38
2019-03-10T02:46:06.914Z,35.98
2019-03-10T02:48:40.547Z,35.70
2019-03-10T02:51:14.313Z,37.67
2019-03-10T02:53:48.035Z,35.63
2019-03-10T02:56:22.164Z,34.67
2019-03-10T02:58:55.865Z,33.45
2019-03-10T03:01:29.789Z,33.15
2019-03-10T03:04:04.282Z,33.57
2019-03-10T03:06:44.977Z,31.60
2019-03-10T03:09:18.839Z,29.45
2019-03-10T03:11:52.625Z,31.70
2019-03-10T03:14:26.498Z,31.30
2019-03-10T03:17:01.014Z,30.95
2019-03-10T03:19:35.424Z,31.90
2019-03-10T03:22:09.508Z,32.98
2019-03-10T03:24:43.378Z,29.20
2019-03-10T03:27:17.302Z,29.02
2019-03-10T03:29:51.249Z,30.40
2019-03-10T03:32:25.262Z,30.82
2019-03-10T03:34:59.533Z,30.35
2019-03-10T03:37:33.271Z,30.25
2019-03-10T03:40:08.028Z,27.95
2019-03-10T03:42:42.816Z,26.93
2019-03-10T03:45:16.317Z,24.17
2019-03-10T03:47:49.939Z,26.87
2019-03-10T03:50:23.647Z,27.60
2019-03-10T03:52:57.249Z,29.95
2019-03-10T03:55:30.731Z,33.28
2019-03-10T03:58:04.340Z,29.70
2019-03-10T04:00:38.050Z,32.25
2019-03-10T04:03:12.605Z,37.17
2019-03-10T04:05:46.988Z,35.13
2019-03-10T04:08:21.599Z,31.75
2019-03-10T04:10:55.289Z,29.52
2019-03-10T04:13:29.149Z,32.17
2019-03-10T04:16:02.743Z,34.60
2019-03-10T04:18:36.754Z,27.20
2019-03-10T04:21:11.618Z,30.00
2019-03-10T04:23:45.277Z,29.87
2019-03-10T04:26:19.204Z,40.80
2019-03-10T04:28:53.402Z,34.65
2019-03-10T04:31:27.667Z,30.20
2019-03-10T04:34:02.315Z,31.30
2019-03-10T04:36:37.344Z,29.53
2019-03-10T04:39:12.004Z,28.95
2019-03-10T04:41:46.195Z,28.90
2019-03-10T04:44:22.684Z,33.05
2019-03-10T04:46:56.939Z,35.40
2019-03-10T04:49:32.099Z,36.68
2019-03-10T04:52:06.330Z,55.12
2019-03-10T04:54:50.438Z,29.75
2019-03-10T04:57:25.380Z,27.62
2019-03-10T05:00:00.338Z,30.77
2019-03-10T05:02:34.346Z,29.48
2019-03-10T05:05:09.782Z,31.62
2019-03-10T05:07:43.853Z,32.00
2019-03-10T05:10:18.187Z,28.60
2019-03-10T05:12:52.120Z,30.02
2019-03-10T05:15:25.972Z,32.28
2019-03-10T05:18:01.195Z,31.10
2019-03-10T05:20:35.030Z,30.32
2019-03-10T05:23:30.482Z,30.08
2019-03-10T05:26:04.763Z,30.12
2019-03-10T05:28:46.278Z,31.20
2019-03-10T05:31:20.503Z,31.50
2019-03-10T05:33:54.380Z,31.12
2019-03-10T05:36:28.169Z,29.50
2019-03-10T05:39:06.015Z,27.65
2019-03-10T05:41:42.270Z,28.55
2019-03-10T05:44:16.912Z,27.45
2019-03-10T05:46:51.277Z,28.17
2019-03-10T05:49:44.471Z,29.65
2019-03-10T05:52:29.747Z,28.40
2019-03-10T05:55:03.448Z,27.32
2019-03-10T05:57:41.759Z,25.97
2019-03-10T06:00:19.795Z,26.15
2019-03-10T06:02:54.087Z,23.42
2019-03-10T06:05:28.388Z,24.87
2019-03-10T06:08:02.713Z,26.70
2019-03-10T06:10:37.226Z,25.80
2019-03-10T06:13:14.440Z,21.15
2019-03-10T06:15:50.897Z,22.32
2019-03-10T06:18:27.239Z,24.18
2019-03-10T06:21:02.165Z,25.15
2019-03-10T06:23:37.332Z,24.80
2019-03-10T06:26:12.310Z,22.73
2019-03-10T06:28:47.710Z,22.17
2019-03-10T06:33:54.377Z,21.20
2019-03-10T06:36:28.213Z,17.37
2019-03-10T06:39:01.935Z,19.73
2019-03-10T06:41:38.899Z,17.75
2019-03-10T06:44:13.893Z,18.95
2019-03-10T06:46:48.148Z,19.52
2019-03-10T06:49:23.483Z,18.07
2019-03-10T06:51:57.292Z,17.37
2019-03-10T06:54:30.959Z,19.00
2019-03-10T06:57:06.391Z,20.43
2019-03-10T06:59:40.547Z,20.70
2019-03-10T07:02:14.881Z,19.45
2019-03-10T07:04:48.714Z,21.77
2019-03-10T07:07:23.614Z,19.27
2019-03-10T07:09:58.370Z,18.10
2019-03-10T07:12:35.120Z,20.30
2019-03-10T07:15:10.829Z,19.73
2019-03-10T07:20:21.133Z,20.52
2019-03-10T07:22:58.711Z,20.57
2019-03-10T07:25:34.202Z,19.95
2019-03-10T07:28:12.622Z,18.90
2019-03-10T07:30:47.731Z,18.25
2019-03-10T07:33:24.379Z,17.40
2019-03-10T07:36:11.530Z,17.27
2019-03-10T07:38:59.704Z,16.75
2019-03-10T07:41:36.555Z,18.02
2019-03-10T07:44:16.276Z,18.20
2019-03-10T07:46:54.810Z,19.62
2019-03-10T07:49:39.400Z,18.27
2019-03-10T07:52:27.077Z,19.00
2019-03-10T07:55:18.939Z,19.42
2019-03-10T07:58:03.543Z,18.30
2019-03-10T08:00:42.422Z,19.40
2019-03-10T08:03:20.853Z,18.73
2019-03-10T08:05:59.290Z,17.15
2019-03-10T08:08:46.680Z,19.05
2019-03-10T08:11:23.850Z,18.12
2019-03-10T08:14:02.072Z,19.62
2019-03-10T08:16:55.335Z,20.35
2019-03-10T08:19:36.709Z,17.90
2019-03-10T08:22:12.560Z,18.60
2019-03-10T08:24:52.286Z,19.15
2019-03-10T08:27:34.837Z,18.70
2019-03-10T08:30:18.664Z,19.60
2019-03-10T08:33:11.004Z,19.60
2019-03-10T08:35:48.404Z,18.62
2019-03-10T08:38:36.857Z,18.00
2019-03-10T08:41:28.886Z,18.32
2019-03-10T08:44:08.629Z,19.62
2019-03-10T08:46:46.937Z,20.60
2019-03-10T08:49:25.805Z,20.95
2019-03-10T08:52:11.277Z,20.80
2019-03-10T08:54:50.132Z,20.27
2019-03-10T08:57:28.507Z,20.80
2019-03-10T09:00:11.830Z,19.17
2019-03-10T09:02:50.023Z,21.17
2019-03-10T09:05:43.526Z,20.85
2019-03-10T09:08:20.156Z,21.35
2019-03-10T09:11:07.907Z,22.13
2019-03-10T09:13:55.930Z,20.60
2019-03-10T09:16:33.931Z,19.48
2019-03-10T09:19:08.876Z,22.70
2019-03-10T09:21:56.173Z,24.18
2019-03-10T09:24:48.604Z,24.18
2019-03-10T09:27:36.257Z,22.82
2019-03-10T09:30:19.699Z,24.10
2019-03-10T09:32:54.956Z,23.92
2019-03-10T09:35:36.789Z,25.15
2019-03-10T09:38:18.746Z,23.20
2019-03-10T09:41:12.812Z,24.10
2019-03-10T09:43:53.982Z,26.37
2019-03-10T09:46:31.820Z,24.75
2019-03-10T09:49:07.333Z,25.20
2019-03-10T09:54:35.016Z,23.50
2019-03-10T09:57:26.536Z,26.62
2019-03-10T10:00:01.728Z,28.73
2019-03-10T10:02:40.012Z,25.25
2019-03-10T10:05:15.020Z,23.75
2019-03-10T10:07:50.676Z,25.92
2019-03-10T10:10:28.883Z,24.87
2019-03-10T10:13:19.398Z,26.60
2019-03-10T10:16:04.768Z,26.42
2019-03-10T10:18:40.849Z,29.12
2019-03-10T10:21:31.522Z,28.47
2019-03-10T10:24:16.699Z,32.03
2019-03-10T10:26:52.043Z,29.50
2019-03-10T10:29:42.363Z,25.95
2019-03-10T10:32:21.558Z,27.30
2019-03-10T10:35:08.984Z,26.75
2019-03-10T10:37:50.127Z,27.98
2019-03-10T10:40:38.538Z,26.10
2019-03-10T10:43:26.956Z,27.17
2019-03-10T10:46:20.381Z,27.37
2019-03-10T10:48:58.501Z,31.00
2019-03-10T10:51:42.922Z,32.30
2019-03-10T10:54:27.239Z,28.67
2019-03-10T10:57:05.818Z,26.68
2019-03-10T10:59:44.276Z,29.52
2019-03-10T11:02:23.287Z,31.07
2019-03-10T11:05:14.822Z,29.32
2019-03-10T11:07:54.264Z,30.17
2019-03-10T11:10:32.683Z,28.07
2019-03-10T11:13:23.967Z,27.58
2019-03-10T11:16:05.072Z,25.55
2019-03-10T11:18:40.044Z,27.02
2019-03-10T11:21:33.198Z,27.00
2019-03-10T11:24:09.017Z,26.35
2019-03-10T11:26:56.651Z,27.35
2019-03-10T11:29:40.808Z,25.30
2019-03-10T11:32:16.145Z,27.98
2019-03-10T11:34:54.505Z,25.50
2019-03-10T11:37:30.089Z,30.40
2019-03-10T11:40:23.781Z,24.30
2019-03-10T11:42:59.218Z,27.52
2019-03-10T11:45:44.184Z,27.13
2019-03-10T11:48:36.012Z,27.13
2019-03-10T11:51:17.305Z,26.97
2019-03-10T11:54:05.248Z,25.32
2019-03-10T11:56:50.611Z,27.02
2019-03-10T11:59:31.226Z,29.67
2019-03-10T12:02:16.130Z,29.77
2019-03-10T12:04:52.720Z,29.85
2019-03-10T12:07:27.786Z,29.07
2019-03-10T12:10:03.771Z,32.58
2019-03-10T12:12:38.389Z,30.70
2019-03-10T12:15:16.968Z,28.53
2019-03-10T12:17:51.788Z,30.23
2019-03-10T12:20:25.697Z,29.42
2019-03-10T12:23:00.567Z,28.30
2019-03-10T12:25:34.871Z,28.30
2019-03-10T12:28:09.466Z,27.13
2019-03-10T12:30:43.387Z,29.47
2019-03-10T12:33:17.449Z,28.50
2019-03-10T12:35:52.227Z,28.17
2019-03-10T12:38:26.410Z,28.90
2019-03-10T12:41:01.002Z,30.02
2019-03-10T12:43:37.331Z,31.23
2019-03-10T12:46:11.037Z,28.80
2019-03-10T12:48:44.810Z,36.88
2019-03-10T12:51:18.983Z,50.28
2019-03-10T12:53:54.880Z,49.23
2019-03-10T12:56:28.490Z,42.88
2019-03-10T12:59:02.774Z,41.77
2019-03-10T13:01:38.047Z,47.85
2019-03-10T13:04:12.729Z,53.50
2019-03-10T13:06:48.482Z,53.63
2019-03-10T13:09:22.876Z,53.60
2019-03-10T13:11:57.084Z,52.58
2019-03-10T13:14:40.600Z,49.05
2019-03-10T13:17:17.940Z,45.52
2019-03-10T13:19:51.685Z,45.05
2019-03-10T13:22:26.015Z,46.85
2019-03-10T13:25:00.171Z,45.00
2019-03-10T13:27:40.499Z,48.52
2019-03-10T13:30:18.090Z,40.70
2019-03-10T13:36:02.708Z,39.73
2019-03-10T13:38:37.043Z,39.13
2019-03-10T13:41:11.337Z,36.95
2019-03-10T13:43:45.669Z,35.30
2019-03-10T13:46:19.502Z,36.55
2019-03-10T13:48:53.771Z,36.50
2019-03-10T13:51:28.062Z,36.33
2019-03-10T13:54:02.135Z,37.03
2019-03-10T13:56:38.219Z,36.53
2019-03-10T13:59:12.589Z,34.15
2019-03-10T14:01:49.239Z,33.38
2019-03-10T14:04:23.469Z,35.40
2019-03-10T14:07:01.357Z,33.10
2019-03-10T14:09:35.698Z,31.70
2019-03-10T14:12:11.782Z,33.40
2019-03-10T14:14:47.096Z,35.88
2019-03-10T14:17:21.849Z,34.98
2019-03-10T14:19:57.593Z,35.73
2019-03-10T14:22:31.843Z,34.05
2019-03-10T14:25:06.110Z,34.80
2019-03-10T14:27:41.179Z,36.35
2019-03-10T14:30:20.714Z,33.25
2019-03-10T14:32:54.543Z,32.08
2019-03-10T14:35:28.732Z,32.83
2019-03-10T14:38:04.837Z,31.02
2019-03-10T14:40:39.701Z,33.00
2019-03-10T14:43:13.682Z,31.25
2019-03-10T14:45:48.064Z,32.05
2019-03-10T14:48:23.767Z,31.95
2019-03-10T14:50:59.539Z,32.42
2019-03-10T14:56:08.083Z,44.42
2019-03-10T14:58:43.200Z,43.27
2019-03-10T15:01:22.111Z,45.28
2019-03-10T15:03:56.356Z,45.40
2019-03-10T15:06:30.257Z,42.23
2019-03-10T15:09:09.725Z,38.53
2019-03-10T15:11:48.861Z,37.95
2019-03-10T15:14:23.533Z,34.92
2019-03-10T15:17:01.781Z,32.87
2019-03-10T15:19:35.631Z,33.60
2019-03-10T15:22:14.708Z,30.60
2019-03-10T15:24:50.832Z,30.48
2019-03-10T15:27:27.018Z,30.88
2019-03-10T15:30:03.750Z,30.62
2019-03-10T15:32:37.801Z,30.62
2019-03-10T15:35:12.753Z,31.52
2019-03-10T15:37:46.535Z,34.45
2019-03-10T15:40:21.737Z,31.93
2019-03-10T15:42:57.274Z,32.38
2019-03-10T15:48:05.535Z,30.02
2019-03-10T15:50:40.622Z,30.30
2019-03-10T15:53:22.465Z,29.67
2019-03-10T15:55:56.790Z,29.18
2019-03-10T15:58:31.331Z,31.33
2019-03-10T16:01:05.461Z,30.20
2019-03-10T16:03:40.485Z,30.00
2019-03-10T16:06:17.449Z,28.90
2019-03-10T16:08:54.014Z,29.42
2019-03-10T16:11:28.361Z,29.30
2019-03-10T16:14:04.179Z,30.32
2019-03-10T16:16:39.070Z,29.32
2019-03-10T16:19:13.892Z,29.30
2019-03-10T16:21:48.595Z,29.20
2019-03-10T16:24:22.385Z,27.80
2019-03-10T16:26:56.679Z,29.85
2019-03-10T16:29:31.162Z,28.10
2019-03-10T16:32:04.930Z,28.27
2019-03-10T16:34:39.046Z,28.70
2019-03-10T16:37:13.287Z,28.80
2019-03-10T16:39:48.929Z,28.55
2019-03-10T16:44:58.566Z,27.87
2019-03-10T16:47:33.036Z,28.32
2019-03-10T16:50:08.182Z,27.90
2019-03-10T16:52:43.489Z,28.95
2019-03-10T16:55:19.502Z,27.45
2019-03-10T16:57:53.935Z,27.70
2019-03-10T17:00:28.433Z,28.42
2019-03-10T17:03:26.640Z,27.90
2019-03-10T17:06:03.928Z,26.62
2019-03-10T17:08:37.963Z,28.15
2019-03-10T17:11:11.634Z,27.13
2019-03-10T17:13:45.787Z,27.00
2019-03-10T17:16:20.351Z,27.10
2019-03-10T17:18:54.398Z,25.65
2019-03-10T17:21:28.513Z,26.25
2019-03-10T17:24:02.725Z,26.02
2019-03-10T17:26:37.962Z,25.90
2019-03-10T17:29:13.023Z,27.05
2019-03-10T17:31:48.753Z,26.70
2019-03-10T17:34:33.713Z,27.48
2019-03-10T17:37:08.691Z,26.47
2019-03-10T17:39:47.004Z,26.53
2019-03-10T17:42:22.104Z,26.37
2019-03-10T17:44:56.302Z,25.92
2019-03-10T17:47:29.898Z,26.90
2019-03-10T17:50:03.959Z,25.55
2019-03-10T17:52:37.652Z,27.87
2019-03-10T17:55:13.294Z,26.90
2019-03-10T17:57:47.406Z,26.12
2019-03-10T18:00:23.967Z,28.45
2019-03-10T18:02:57.711Z,26.57
2019-03-10T18:05:32.189Z,27.70
2019-03-10T18:08:06.737Z,26.57
2019-03-10T18:10:40.357Z,28.07
2019-03-10T18:13:15.277Z,26.70
2019-03-10T18:15:48.865Z,27.55
2019-03-10T18:18:22.508Z,27.37
2019-03-10T18:20:57.357Z,27.45
2019-03-10T18:23:30.936Z,28.65
2019-03-10T18:26:04.574Z,27.80
2019-03-10T18:28:39.254Z,26.80
2019-03-10T18:31:13.118Z,28.23
2019-03-10T18:33:46.670Z,28.15
2019-03-10T18:36:21.780Z,28.20
2019-03-10T18:38:55.367Z,28.47
2019-03-10T18:41:28.958Z,26.97
2019-03-10T18:44:02.531Z,27.82
2019-03-10T18:46:36.196Z,28.40
2019-03-10T18:49:10.372Z,26.70
2019-03-10T18:51:44.006Z,27.00
2019-03-10T18:54:17.890Z,28.07
2019-03-10T18:56:51.407Z,26.40
2019-03-10T18:59:25.294Z,27.73
2019-03-10T19:01:59.228Z,26.52
2019-03-10T19:04:32.999Z,28.67
2019-03-10T19:07:07.031Z,26.45
2019-03-10T19:09:41.815Z,28.45
2019-03-10T19:12:15.383Z,27.55
2019-03-10T19:14:49.364Z,27.40
2019-03-10T19:17:23.101Z,27.60
2019-03-10T19:19:56.977Z,27.35
2019-03-10T19:22:30.508Z,27.40
2019-03-10T19:25:03.952Z,27.75
2019-03-10T19:27:38.089Z,27.67
2019-03-10T19:30:13.566Z,27.75
2019-03-10T19:32:47.189Z,26.75
2019-03-10T19:35:21.147Z,27.52
2019-03-10T19:37:55.744Z,26.93
2019-03-10T19:40:29.359Z,27.40
2019-03-10T19:43:02.899Z,27.48
2019-03-10T19:45:36.485Z,27.82
2019-03-10T19:48:09.835Z,28.15
2019-03-10T19:50:43.772Z,27.85
2019-03-10T19:53:17.367Z,27.42
2019-03-10T19:55:51.033Z,27.07
2019-03-10T19:58:25.093Z,26.23
2019-03-10T20:00:58.720Z,26.62
2019-03-10T20:03:32.223Z,27.27
2019-03-10T20:06:06.113Z,27.32
2019-03-10T20:08:39.781Z,26.80
2019-03-10T20:11:13.718Z,27.73
2019-03-10T20:13:47.635Z,27.70
2019-03-10T20:16:21.160Z,27.22
2019-03-10T20:18:54.636Z,27.17
2019-03-10T20:21:29.305Z,27.48
2019-03-10T20:24:02.851Z,26.35
2019-03-10T20:26:36.585Z,27.52
2019-03-10T20:29:10.206Z,26.30
2019-03-10T20:31:43.796Z,27.80
2019-03-10T20:34:17.766Z,27.10
2019-03-10T20:36:52.263Z,26.35
2019-03-10T20:39:26.000Z,26.45
2019-03-10T20:42:05.217Z,27.85
2019-03-10T20:44:34.909Z,27.25
2019-03-10T20:47:09.563Z,28.60
2019-03-10T20:49:43.238Z,29.57
2019-03-10T20:56:02.751Z,28.15
2019-03-10T20:58:41.078Z,28.95
2019-03-10T21:01:15.902Z,29.30
2019-03-10T21:03:51.070Z,29.87
2019-03-10T21:06:24.627Z,29.80
2019-03-10T21:09:02.231Z,27.93
2019-03-10T21:11:35.689Z,29.42
2019-03-10T21:14:09.301Z,27.62
2019-03-10T21:16:44.094Z,27.95
2019-03-10T21:19:17.585Z,27.65
2019-03-10T21:21:51.273Z,26.60
2019-03-10T21:24:24.708Z,27.87
2019-03-10T21:26:58.302Z,27.22
2019-03-10T21:29:31.762Z,27.90
2019-03-10T21:32:06.275Z,27.65
2019-03-10T21:34:39.943Z,28.02
2019-03-10T21:37:13.415Z,29.30
2019-03-10T21:39:49.400Z,29.27
2019-03-10T21:42:23.257Z,29.60
2019-03-10T21:44:57.375Z,30.15
2019-03-10T21:47:30.874Z,30.10
2019-03-10T21:50:04.571Z,29.67
2019-03-10T21:52:38.054Z,29.45
2019-03-10T21:55:13.432Z,30.37
2019-03-10T21:57:47.108Z,31.07
2019-03-10T22:00:21.307Z,31.80
2019-03-10T22:02:54.845Z,29.90
2019-03-10T22:05:28.455Z,28.17
2019-03-10T22:08:02.126Z,26.68
2019-03-10T22:10:36.354Z,28.10
2019-03-10T22:13:09.956Z,28.80
2019-03-10T22:15:43.665Z,29.27
2019-03-10T22:18:18.198Z,29.10
2019-03-10T22:20:51.706Z,29.67
2019-03-10T22:23:25.695Z,28.95
2019-03-10T22:25:59.336Z,30.15
2019-03-10T22:28:32.821Z,28.52
2019-03-10T22:31:06.491Z,28.67
2019-03-10T22:33:40.151Z,29.20
2019-03-10T22:36:13.785Z,28.45
2019-03-10T22:38:47.712Z,28.35
2019-03-10T22:41:21.470Z,28.65
2019-03-10T22:43:54.915Z,27.25
2019-03-10T22:46:28.606Z,28.60
2019-03-10T22:49:02.194Z,29.00
2019-03-10T22:51:35.826Z,29.12
2019-03-10T22:54:09.457Z,30.05
2019-03-10T22:56:44.041Z,30.40
2019-03-10T22:59:17.651Z,31.65
2019-03-10T23:01:51.255Z,32.20
2019-03-10T23:04:25.091Z,31.05
2019-03-10T23:06:58.793Z,32.38
2019-03-10T23:09:32.339Z,35.52
2019-03-10T23:12:05.976Z,31.27
2019-03-10T23:14:39.566Z,35.75
2019-03-10T23:17:13.146Z,36.30
2019-03-10T23:19:46.850Z,36.93
2019-03-10T23:22:20.228Z,32.80
2019-03-10T23:24:53.796Z,36.80
2019-03-10T23:27:27.240Z,37.03
2019-03-10T23:30:00.801Z,35.98
2019-03-10T23:32:35.310Z,36.98
2019-03-10T23:35:09.615Z,40.67
2019-03-10T23:37:43.552Z,37.80
2019-03-10T23:40:22.058Z,33.58
2019-03-10T23:42:56.852Z,33.45
2019-03-10T23:45:30.591Z,33.42
2019-03-10T23:48:04.212Z,33.90
2019-03-10T23:50:37.728Z,35.83
2019-03-10T23:53:11.354Z,39.80
2019-03-10T23:55:45.186Z,41.80
2019-03-10T23:58:18.984Z,40.48
